sensor_id;sensor_type;location;lat;lon;timestamp;P1;durP1;ratioP1;P2;durP2;ratioP2
74777;SDS011;63298;53.164;8.610;2023-08-06T00:00:37;1.80;;;1.40;;
74777;SDS011;63298;53.164;8.610;2023-08-06T00:03:04;1.48;;;1.38;;
74777;SDS011;63298;53.164;8.610;2023-08-06T00:05:31;2.55;;;1.55;;
74777;SDS011;63298;53.164;8.610;2023-08-06T00:07:57;1.55;;;1.15;;
74777;SDS011;63298;53.164;8.610;2023-08-06T00:10:23;1.60;;;1.50;;
74777;SDS011;63298;53.164;8.610;2023-08-06T00:12:48;6.60;;;1.35;;
74777;SDS011;63298;53.164;8.610;2023-08-06T00:15:14;2.10;;;1.88;;
74777;SDS011;63298;53.164;8.610;2023-08-06T00:17:39;1.33;;;1.23;;
74777;SDS011;63298;53.164;8.610;2023-08-06T00:20:05;1.63;;;1.52;;
74777;SDS011;63298;53.164;8.610;2023-08-06T00:22:32;1.40;;;1.30;;
74777;SDS011;63298;53.164;8.610;2023-08-06T00:25:02;3.00;;;1.60;;
74777;SDS011;63298;53.164;8.610;2023-08-06T00:27:29;1.75;;;1.45;;
74777;SDS011;63298;53.164;8.610;2023-08-06T00:29:55;2.58;;;1.25;;
74777;SDS011;63298;53.164;8.610;2023-08-06T00:32:21;1.30;;;1.30;;
74777;SDS011;63298;53.164;8.610;2023-08-06T00:34:47;1.23;;;1.20;;
74777;SDS011;63298;53.164;8.610;2023-08-06T00:37:12;1.55;;;1.45;;
74777;SDS011;63298;53.164;8.610;2023-08-06T00:39:38;2.85;;;1.38;;
74777;SDS011;63298;53.164;8.610;2023-08-06T00:42:03;2.25;;;1.30;;
74777;SDS011;63298;53.164;8.610;2023-08-06T00:44:29;2.75;;;1.23;;
74777;SDS011;63298;53.164;8.610;2023-08-06T00:46:54;4.45;;;1.45;;
74777;SDS011;63298;53.164;8.610;2023-08-06T00:49:20;1.60;;;1.50;;
74777;SDS011;63298;53.164;8.610;2023-08-06T00:51:46;2.63;;;1.30;;
74777;SDS011;63298;53.164;8.610;2023-08-06T00:54:12;1.17;;;1.17;;
74777;SDS011;63298;53.164;8.610;2023-08-06T00:56:38;6.03;;;1.48;;
74777;SDS011;63298;53.164;8.610;2023-08-06T00:59:06;2.15;;;1.50;;
74777;SDS011;63298;53.164;8.610;2023-08-06T01:01:31;4.78;;;1.30;;
74777;SDS011;63298;53.164;8.610;2023-08-06T01:03:57;1.90;;;1.40;;
74777;SDS011;63298;53.164;8.610;2023-08-06T01:06:26;1.75;;;1.50;;
74777;SDS011;63298;53.164;8.610;2023-08-06T01:14:46;3.15;;;1.40;;
74777;SDS011;63298;53.164;8.610;2023-08-06T01:17:18;2.88;;;1.35;;
74777;SDS011;63298;53.164;8.610;2023-08-06T01:19:45;1.58;;;1.45;;
74777;SDS011;63298;53.164;8.610;2023-08-06T01:22:10;1.58;;;1.48;;
74777;SDS011;63298;53.164;8.610;2023-08-06T01:24:36;2.63;;;1.35;;
74777;SDS011;63298;53.164;8.610;2023-08-06T01:27:06;2.58;;;1.48;;
74777;SDS011;63298;53.164;8.610;2023-08-06T01:32:01;1.87;;;1.70;;
74777;SDS011;63298;53.164;8.610;2023-08-06T01:34:28;2.35;;;1.88;;
74777;SDS011;63298;53.164;8.610;2023-08-06T01:36:57;2.40;;;1.50;;
74777;SDS011;63298;53.164;8.610;2023-08-06T01:39:24;2.90;;;1.52;;
74777;SDS011;63298;53.164;8.610;2023-08-06T01:41:50;3.33;;;1.40;;
74777;SDS011;63298;53.164;8.610;2023-08-06T01:44:15;1.70;;;1.60;;
74777;SDS011;63298;53.164;8.610;2023-08-06T01:46:41;1.80;;;1.63;;
74777;SDS011;63298;53.164;8.610;2023-08-06T01:49:06;2.35;;;1.40;;
74777;SDS011;63298;53.164;8.610;2023-08-06T01:51:31;3.63;;;1.80;;
74777;SDS011;63298;53.164;8.610;2023-08-06T01:53:57;1.40;;;1.30;;
74777;SDS011;63298;53.164;8.610;2023-08-06T01:56:22;1.65;;;1.55;;
74777;SDS011;63298;53.164;8.610;2023-08-06T01:58:47;1.63;;;1.52;;
74777;SDS011;63298;53.164;8.610;2023-08-06T02:01:13;1.58;;;1.38;;
74777;SDS011;63298;53.164;8.610;2023-08-06T02:03:38;2.22;;;1.73;;
74777;SDS011;63298;53.164;8.610;2023-08-06T02:06:03;1.80;;;1.48;;
74777;SDS011;63298;53.164;8.610;2023-08-06T02:08:28;1.80;;;1.70;;
74777;SDS011;63298;53.164;8.610;2023-08-06T02:10:54;2.65;;;1.77;;
74777;SDS011;63298;53.164;8.610;2023-08-06T02:13:19;2.10;;;1.60;;
74777;SDS011;63298;53.164;8.610;2023-08-06T02:15:45;1.80;;;1.70;;
74777;SDS011;63298;53.164;8.610;2023-08-06T02:18:11;1.90;;;1.80;;
74777;SDS011;63298;53.164;8.610;2023-08-06T02:20:36;2.85;;;1.98;;
74777;SDS011;63298;53.164;8.610;2023-08-06T02:23:01;3.10;;;1.85;;
74777;SDS011;63298;53.164;8.610;2023-08-06T02:25:27;2.55;;;1.80;;
74777;SDS011;63298;53.164;8.610;2023-08-06T02:27:52;2.28;;;1.80;;
74777;SDS011;63298;53.164;8.610;2023-08-06T02:30:17;2.50;;;1.85;;
74777;SDS011;63298;53.164;8.610;2023-08-06T02:32:43;3.35;;;2.00;;
74777;SDS011;63298;53.164;8.610;2023-08-06T02:35:11;4.65;;;2.05;;
74777;SDS011;63298;53.164;8.610;2023-08-06T02:37:37;3.35;;;2.38;;
74777;SDS011;63298;53.164;8.610;2023-08-06T02:40:02;2.20;;;2.00;;
74777;SDS011;63298;53.164;8.610;2023-08-06T02:42:28;2.75;;;1.77;;
74777;SDS011;63298;53.164;8.610;2023-08-06T02:44:53;3.55;;;2.28;;
74777;SDS011;63298;53.164;8.610;2023-08-06T02:47:19;3.55;;;2.05;;
74777;SDS011;63298;53.164;8.610;2023-08-06T02:49:44;2.38;;;2.15;;
74777;SDS011;63298;53.164;8.610;2023-08-06T02:52:10;2.40;;;2.15;;
74777;SDS011;63298;53.164;8.610;2023-08-06T02:54:36;3.55;;;2.35;;
74777;SDS011;63298;53.164;8.610;2023-08-06T02:57:01;2.85;;;2.25;;
74777;SDS011;63298;53.164;8.610;2023-08-06T02:59:27;2.60;;;2.03;;
74777;SDS011;63298;53.164;8.610;2023-08-06T03:01:52;2.33;;;2.13;;
74777;SDS011;63298;53.164;8.610;2023-08-06T03:04:17;3.50;;;2.20;;
74777;SDS011;63298;53.164;8.610;2023-08-06T03:06:43;3.53;;;2.42;;
74777;SDS011;63298;53.164;8.610;2023-08-06T03:09:09;3.97;;;2.50;;
74777;SDS011;63298;53.164;8.610;2023-08-06T03:11:34;2.80;;;2.47;;
74777;SDS011;63298;53.164;8.610;2023-08-06T03:14:00;2.38;;;2.15;;
74777;SDS011;63298;53.164;8.610;2023-08-06T03:16:25;2.97;;;2.53;;
74777;SDS011;63298;53.164;8.610;2023-08-06T03:18:51;5.78;;;2.30;;
74777;SDS011;63298;53.164;8.610;2023-08-06T03:21:16;2.00;;;1.90;;
74777;SDS011;63298;53.164;8.610;2023-08-06T03:23:42;2.60;;;2.33;;
74777;SDS011;63298;53.164;8.610;2023-08-06T03:26:07;4.25;;;2.40;;
74777;SDS011;63298;53.164;8.610;2023-08-06T03:28:32;6.80;;;2.20;;
74777;SDS011;63298;53.164;8.610;2023-08-06T03:30:58;2.85;;;2.55;;
74777;SDS011;63298;53.164;8.610;2023-08-06T03:33:27;3.17;;;2.40;;
74777;SDS011;63298;53.164;8.610;2023-08-06T03:35:53;2.67;;;2.40;;
74777;SDS011;63298;53.164;8.610;2023-08-06T03:38:18;2.75;;;2.50;;
74777;SDS011;63298;53.164;8.610;2023-08-06T03:40:43;3.67;;;2.30;;
74777;SDS011;63298;53.164;8.610;2023-08-06T03:43:09;2.70;;;2.42;;
74777;SDS011;63298;53.164;8.610;2023-08-06T03:45:34;3.05;;;2.78;;
74777;SDS011;63298;53.164;8.610;2023-08-06T03:47:59;3.05;;;2.65;;
74777;SDS011;63298;53.164;8.610;2023-08-06T03:50:25;3.15;;;2.85;;
74777;SDS011;63298;53.164;8.610;2023-08-06T03:52:50;2.70;;;2.50;;
74777;SDS011;63298;53.164;8.610;2023-08-06T03:55:15;3.08;;;2.78;;
74777;SDS011;63298;53.164;8.610;2023-08-06T03:57:41;6.07;;;3.13;;
74777;SDS011;63298;53.164;8.610;2023-08-06T04:00:06;2.78;;;2.55;;
74777;SDS011;63298;53.164;8.610;2023-08-06T04:02:32;4.30;;;2.78;;
74777;SDS011;63298;53.164;8.610;2023-08-06T04:04:57;3.70;;;2.90;;
74777;SDS011;63298;53.164;8.610;2023-08-06T04:07:22;3.80;;;2.90;;
74777;SDS011;63298;53.164;8.610;2023-08-06T04:09:55;4.68;;;3.42;;
74777;SDS011;63298;53.164;8.610;2023-08-06T04:12:22;3.22;;;2.90;;
74777;SDS011;63298;53.164;8.610;2023-08-06T04:14:48;3.75;;;2.97;;
74777;SDS011;63298;53.164;8.610;2023-08-06T04:17:14;4.40;;;2.97;;
74777;SDS011;63298;53.164;8.610;2023-08-06T04:19:39;4.05;;;2.85;;
74777;SDS011;63298;53.164;8.610;2023-08-06T04:22:05;3.40;;;3.10;;
74777;SDS011;63298;53.164;8.610;2023-08-06T04:24:30;6.95;;;3.10;;
74777;SDS011;63298;53.164;8.610;2023-08-06T04:26:55;3.38;;;3.08;;
74777;SDS011;63298;53.164;8.610;2023-08-06T04:29:21;4.80;;;3.22;;
74777;SDS011;63298;53.164;8.610;2023-08-06T04:31:46;3.75;;;3.25;;
74777;SDS011;63298;53.164;8.610;2023-08-06T04:34:11;3.33;;;2.90;;
74777;SDS011;63298;53.164;8.610;2023-08-06T04:36:36;3.85;;;2.72;;
74777;SDS011;63298;53.164;8.610;2023-08-06T04:39:02;3.15;;;2.85;;
74777;SDS011;63298;53.164;8.610;2023-08-06T04:41:27;4.28;;;3.10;;
74777;SDS011;63298;53.164;8.610;2023-08-06T04:43:54;5.60;;;2.90;;
74777;SDS011;63298;53.164;8.610;2023-08-06T04:46:25;3.33;;;3.05;;
74777;SDS011;63298;53.164;8.610;2023-08-06T04:48:50;4.10;;;3.40;;
74777;SDS011;63298;53.164;8.610;2023-08-06T04:51:15;3.20;;;3.00;;
74777;SDS011;63298;53.164;8.610;2023-08-06T04:53:41;3.42;;;2.75;;
74777;SDS011;63298;53.164;8.610;2023-08-06T04:56:06;3.72;;;3.13;;
74777;SDS011;63298;53.164;8.610;2023-08-06T04:58:31;3.60;;;2.93;;
74777;SDS011;63298;53.164;8.610;2023-08-06T05:00:57;3.22;;;2.97;;
74777;SDS011;63298;53.164;8.610;2023-08-06T05:03:23;3.33;;;3.03;;
74777;SDS011;63298;53.164;8.610;2023-08-06T05:05:48;6.03;;;3.47;;
74777;SDS011;63298;53.164;8.610;2023-08-06T05:08:14;3.67;;;2.67;;
74777;SDS011;63298;53.164;8.610;2023-08-06T05:10:41;5.40;;;2.97;;
74777;SDS011;63298;53.164;8.610;2023-08-06T05:13:08;5.30;;;3.47;;
74777;SDS011;63298;53.164;8.610;2023-08-06T05:15:33;4.18;;;3.78;;
74777;SDS011;63298;53.164;8.610;2023-08-06T05:17:58;4.40;;;4.00;;
74777;SDS011;63298;53.164;8.610;2023-08-06T05:20:23;5.97;;;4.43;;
74777;SDS011;63298;53.164;8.610;2023-08-06T05:22:49;4.53;;;4.00;;
74777;SDS011;63298;53.164;8.610;2023-08-06T05:25:14;11.13;;;5.47;;
74777;SDS011;63298;53.164;8.610;2023-08-06T05:27:40;9.70;;;6.00;;
74777;SDS011;63298;53.164;8.610;2023-08-06T05:30:05;12.70;;;7.57;;
74777;SDS011;63298;53.164;8.610;2023-08-06T05:32:31;11.70;;;5.32;;
74777;SDS011;63298;53.164;8.610;2023-08-06T05:34:56;8.73;;;4.70;;
74777;SDS011;63298;53.164;8.610;2023-08-06T05:37:22;8.38;;;5.93;;
74777;SDS011;63298;53.164;8.610;2023-08-06T05:39:47;10.73;;;6.20;;
74777;SDS011;63298;53.164;8.610;2023-08-06T05:42:12;9.80;;;5.88;;
74777;SDS011;63298;53.164;8.610;2023-08-06T05:44:38;9.73;;;6.18;;
74777;SDS011;63298;53.164;8.610;2023-08-06T05:47:03;10.05;;;6.00;;
74777;SDS011;63298;53.164;8.610;2023-08-06T05:49:29;9.60;;;6.72;;
74777;SDS011;63298;53.164;8.610;2023-08-06T05:51:54;10.95;;;6.72;;
74777;SDS011;63298;53.164;8.610;2023-08-06T05:54:19;9.88;;;7.03;;
74777;SDS011;63298;53.164;8.610;2023-08-06T05:56:45;12.15;;;6.25;;
74777;SDS011;63298;53.164;8.610;2023-08-06T05:59:10;11.13;;;6.97;;
74777;SDS011;63298;53.164;8.610;2023-08-06T06:01:35;9.63;;;6.63;;
74777;SDS011;63298;53.164;8.610;2023-08-06T06:04:00;7.65;;;5.85;;
74777;SDS011;63298;53.164;8.610;2023-08-06T06:06:26;10.55;;;7.78;;
74777;SDS011;63298;53.164;8.610;2023-08-06T06:08:51;10.98;;;8.50;;
74777;SDS011;63298;53.164;8.610;2023-08-06T06:11:16;11.20;;;7.35;;
74777;SDS011;63298;53.164;8.610;2023-08-06T06:13:42;7.43;;;6.03;;
74777;SDS011;63298;53.164;8.610;2023-08-06T06:16:07;8.27;;;6.10;;
74777;SDS011;63298;53.164;8.610;2023-08-06T06:18:32;8.23;;;5.38;;
74777;SDS011;63298;53.164;8.610;2023-08-06T06:20:58;5.88;;;4.57;;
74777;SDS011;63298;53.164;8.610;2023-08-06T06:23:23;5.03;;;4.53;;
74777;SDS011;63298;53.164;8.610;2023-08-06T06:25:49;4.97;;;4.47;;
74777;SDS011;63298;53.164;8.610;2023-08-06T06:28:15;4.70;;;3.97;;
74777;SDS011;63298;53.164;8.610;2023-08-06T06:30:41;6.80;;;4.90;;
74777;SDS011;63298;53.164;8.610;2023-08-06T06:33:07;5.40;;;4.57;;
74777;SDS011;63298;53.164;8.610;2023-08-06T06:35:32;7.07;;;4.10;;
74777;SDS011;63298;53.164;8.610;2023-08-06T06:37:57;5.22;;;3.50;;
74777;SDS011;63298;53.164;8.610;2023-08-06T06:40:23;6.03;;;3.38;;
74777;SDS011;63298;53.164;8.610;2023-08-06T06:42:48;3.72;;;3.40;;
74777;SDS011;63298;53.164;8.610;2023-08-06T06:45:13;5.35;;;3.85;;
74777;SDS011;63298;53.164;8.610;2023-08-06T06:47:39;5.15;;;3.55;;
74777;SDS011;63298;53.164;8.610;2023-08-06T06:50:04;3.72;;;3.38;;
74777;SDS011;63298;53.164;8.610;2023-08-06T06:52:30;4.80;;;3.80;;
74777;SDS011;63298;53.164;8.610;2023-08-06T06:54:58;4.05;;;3.65;;
74777;SDS011;63298;53.164;8.610;2023-08-06T06:57:26;4.35;;;3.53;;
74777;SDS011;63298;53.164;8.610;2023-08-06T06:59:52;5.30;;;3.45;;
74777;SDS011;63298;53.164;8.610;2023-08-06T07:02:17;3.80;;;3.50;;
74777;SDS011;63298;53.164;8.610;2023-08-06T07:04:42;4.65;;;4.00;;
74777;SDS011;63298;53.164;8.610;2023-08-06T07:07:08;7.15;;;4.90;;
74777;SDS011;63298;53.164;8.610;2023-08-06T07:09:33;6.53;;;4.40;;
74777;SDS011;63298;53.164;8.610;2023-08-06T07:11:59;10.63;;;5.68;;
74777;SDS011;63298;53.164;8.610;2023-08-06T07:14:25;6.20;;;4.47;;
74777;SDS011;63298;53.164;8.610;2023-08-06T07:16:51;5.97;;;5.15;;
74777;SDS011;63298;53.164;8.610;2023-08-06T07:19:16;5.53;;;4.70;;
74777;SDS011;63298;53.164;8.610;2023-08-06T07:21:41;4.32;;;3.92;;
74777;SDS011;63298;53.164;8.610;2023-08-06T07:24:07;4.70;;;3.90;;
74777;SDS011;63298;53.164;8.610;2023-08-06T07:26:32;4.25;;;3.85;;
74777;SDS011;63298;53.164;8.610;2023-08-06T07:28:57;4.90;;;3.80;;
74777;SDS011;63298;53.164;8.610;2023-08-06T07:31:23;10.45;;;5.75;;
74777;SDS011;63298;53.164;8.610;2023-08-06T07:33:48;6.80;;;5.22;;
74777;SDS011;63298;53.164;8.610;2023-08-06T07:36:14;9.93;;;6.13;;
74777;SDS011;63298;53.164;8.610;2023-08-06T07:38:40;14.18;;;7.22;;
74777;SDS011;63298;53.164;8.610;2023-08-06T07:41:06;10.10;;;8.60;;
74777;SDS011;63298;53.164;8.610;2023-08-06T07:43:33;8.25;;;7.35;;
74777;SDS011;63298;53.164;8.610;2023-08-06T07:46:00;4.82;;;4.32;;
74777;SDS011;63298;53.164;8.610;2023-08-06T07:48:25;5.35;;;4.85;;
74777;SDS011;63298;53.164;8.610;2023-08-06T07:50:52;4.95;;;4.45;;
74777;SDS011;63298;53.164;8.610;2023-08-06T07:53:18;4.28;;;3.97;;
74777;SDS011;63298;53.164;8.610;2023-08-06T07:55:43;5.20;;;3.92;;
74777;SDS011;63298;53.164;8.610;2023-08-06T07:58:12;4.55;;;4.15;;
74777;SDS011;63298;53.164;8.610;2023-08-06T08:00:37;3.55;;;3.25;;
74777;SDS011;63298;53.164;8.610;2023-08-06T08:03:03;5.30;;;4.22;;
74777;SDS011;63298;53.164;8.610;2023-08-06T08:05:28;11.20;;;5.97;;
74777;SDS011;63298;53.164;8.610;2023-08-06T08:07:53;4.88;;;4.47;;
74777;SDS011;63298;53.164;8.610;2023-08-06T08:10:18;8.38;;;3.67;;
74777;SDS011;63298;53.164;8.610;2023-08-06T08:12:44;4.18;;;3.83;;
74777;SDS011;63298;53.164;8.610;2023-08-06T08:15:09;4.60;;;4.20;;
74777;SDS011;63298;53.164;8.610;2023-08-06T08:17:34;4.60;;;4.18;;
74777;SDS011;63298;53.164;8.610;2023-08-06T08:20:00;3.67;;;3.38;;
74777;SDS011;63298;53.164;8.610;2023-08-06T08:22:25;3.47;;;3.20;;
74777;SDS011;63298;53.164;8.610;2023-08-06T08:24:50;3.28;;;3.08;;
74777;SDS011;63298;53.164;8.610;2023-08-06T08:27:16;2.88;;;2.67;;
74777;SDS011;63298;53.164;8.610;2023-08-06T08:29:41;6.40;;;2.58;;
74777;SDS011;63298;53.164;8.610;2023-08-06T08:32:06;2.63;;;2.42;;
74777;SDS011;63298;53.164;8.610;2023-08-06T08:34:33;3.10;;;2.80;;
74777;SDS011;63298;53.164;8.610;2023-08-06T08:36:58;4.05;;;3.40;;
74777;SDS011;63298;53.164;8.610;2023-08-06T08:39:24;3.20;;;2.65;;
74777;SDS011;63298;53.164;8.610;2023-08-06T08:41:49;2.88;;;2.63;;
74777;SDS011;63298;53.164;8.610;2023-08-06T08:44:14;4.25;;;2.50;;
74777;SDS011;63298;53.164;8.610;2023-08-06T08:46:41;2.78;;;2.58;;
74777;SDS011;63298;53.164;8.610;2023-08-06T08:49:08;3.80;;;2.72;;
74777;SDS011;63298;53.164;8.610;2023-08-06T08:51:35;2.60;;;2.40;;
74777;SDS011;63298;53.164;8.610;2023-08-06T08:54:04;2.33;;;2.15;;
74777;SDS011;63298;53.164;8.610;2023-08-06T08:56:32;2.33;;;2.20;;
74777;SDS011;63298;53.164;8.610;2023-08-06T08:58:57;2.63;;;2.38;;
74777;SDS011;63298;53.164;8.610;2023-08-06T09:01:23;2.35;;;2.17;;
74777;SDS011;63298;53.164;8.610;2023-08-06T09:03:49;2.47;;;1.75;;
74777;SDS011;63298;53.164;8.610;2023-08-06T09:06:15;1.33;;;1.33;;
74777;SDS011;63298;53.164;8.610;2023-08-06T09:08:43;2.10;;;1.90;;
74777;SDS011;63298;53.164;8.610;2023-08-06T09:11:15;2.88;;;1.77;;
74777;SDS011;63298;53.164;8.610;2023-08-06T09:13:42;2.95;;;1.80;;
74777;SDS011;63298;53.164;8.610;2023-08-06T09:16:07;1.90;;;1.80;;
74777;SDS011;63298;53.164;8.610;2023-08-06T09:18:32;2.03;;;1.92;;
74777;SDS011;63298;53.164;8.610;2023-08-06T09:20:58;3.53;;;1.90;;
74777;SDS011;63298;53.164;8.610;2023-08-06T09:23:29;2.75;;;1.45;;
74777;SDS011;63298;53.164;8.610;2023-08-06T09:25:56;1.73;;;1.63;;
74777;SDS011;63298;53.164;8.610;2023-08-06T09:28:22;1.50;;;1.40;;
74777;SDS011;63298;53.164;8.610;2023-08-06T09:30:47;1.70;;;1.60;;
74777;SDS011;63298;53.164;8.610;2023-08-06T09:33:14;2.63;;;1.50;;
74777;SDS011;63298;53.164;8.610;2023-08-06T09:35:43;1.42;;;1.33;;
74777;SDS011;63298;53.164;8.610;2023-08-06T09:38:10;1.90;;;1.20;;
74777;SDS011;63298;53.164;8.610;2023-08-06T09:40:36;1.50;;;1.40;;
74777;SDS011;63298;53.164;8.610;2023-08-06T09:43:02;1.98;;;1.20;;
74777;SDS011;63298;53.164;8.610;2023-08-06T09:45:29;2.05;;;1.25;;
74777;SDS011;63298;53.164;8.610;2023-08-06T09:48:00;1.60;;;1.20;;
74777;SDS011;63298;53.164;8.610;2023-08-06T09:50:29;1.23;;;1.23;;
74777;SDS011;63298;53.164;8.610;2023-08-06T09:52:56;3.60;;;1.58;;
74777;SDS011;63298;53.164;8.610;2023-08-06T09:55:22;1.70;;;1.35;;
74777;SDS011;63298;53.164;8.610;2023-08-06T09:57:48;1.40;;;1.30;;
74777;SDS011;63298;53.164;8.610;2023-08-06T10:00:14;1.52;;;1.33;;
74777;SDS011;63298;53.164;8.610;2023-08-06T10:02:40;1.50;;;1.40;;
74777;SDS011;63298;53.164;8.610;2023-08-06T10:05:06;2.42;;;1.40;;
74777;SDS011;63298;53.164;8.610;2023-08-06T10:07:33;1.75;;;1.08;;
74777;SDS011;63298;53.164;8.610;2023-08-06T10:09:59;1.58;;;1.50;;
74777;SDS011;63298;53.164;8.610;2023-08-06T10:12:24;1.27;;;1.27;;
74777;SDS011;63298;53.164;8.610;2023-08-06T10:14:54;2.13;;;1.17;;
74777;SDS011;63298;53.164;8.610;2023-08-06T10:17:22;2.72;;;1.00;;
74777;SDS011;63298;53.164;8.610;2023-08-06T10:19:49;2.45;;;1.05;;
74777;SDS011;63298;53.164;8.610;2023-08-06T10:22:16;1.38;;;1.20;;
74777;SDS011;63298;53.164;8.610;2023-08-06T10:24:55;1.00;;;0.90;;
74777;SDS011;63298;53.164;8.610;2023-08-06T10:27:23;1.15;;;1.10;;
74777;SDS011;63298;53.164;8.610;2023-08-06T10:30:19;2.13;;;1.13;;
74777;SDS011;63298;53.164;8.610;2023-08-06T10:32:48;2.72;;;1.40;;
74777;SDS011;63298;53.164;8.610;2023-08-06T10:35:30;1.23;;;1.13;;
74777;SDS011;63298;53.164;8.610;2023-08-06T10:40:33;1.33;;;1.23;;
74777;SDS011;63298;53.164;8.610;2023-08-06T10:43:02;1.10;;;1.10;;
74777;SDS011;63298;53.164;8.610;2023-08-06T10:45:29;0.90;;;0.90;;
74777;SDS011;63298;53.164;8.610;2023-08-06T10:47:55;1.63;;;1.17;;
74777;SDS011;63298;53.164;8.610;2023-08-06T10:50:20;1.13;;;1.02;;
74777;SDS011;63298;53.164;8.610;2023-08-06T10:52:46;0.80;;;0.80;;
74777;SDS011;63298;53.164;8.610;2023-08-06T10:55:33;1.00;;;1.00;;
74777;SDS011;63298;53.164;8.610;2023-08-06T10:57:58;1.25;;;1.00;;
74777;SDS011;63298;53.164;8.610;2023-08-06T11:00:23;2.22;;;1.15;;
74777;SDS011;63298;53.164;8.610;2023-08-06T11:02:48;0.90;;;0.90;;
74777;SDS011;63298;53.164;8.610;2023-08-06T11:05:15;1.10;;;1.10;;
74777;SDS011;63298;53.164;8.610;2023-08-06T11:07:40;1.25;;;1.15;;
74777;SDS011;63298;53.164;8.610;2023-08-06T11:10:06;1.10;;;1.10;;
74777;SDS011;63298;53.164;8.610;2023-08-06T11:12:33;1.10;;;1.00;;
74777;SDS011;63298;53.164;8.610;2023-08-06T11:14:59;1.00;;;1.00;;
74777;SDS011;63298;53.164;8.610;2023-08-06T11:17:27;1.50;;;1.40;;
74777;SDS011;63298;53.164;8.610;2023-08-06T11:19:53;1.45;;;1.35;;
74777;SDS011;63298;53.164;8.610;2023-08-06T11:22:20;1.30;;;1.20;;
74777;SDS011;63298;53.164;8.610;2023-08-06T11:24:46;1.02;;;1.02;;
74777;SDS011;63298;53.164;8.610;2023-08-06T11:27:12;0.85;;;0.80;;
74777;SDS011;63298;53.164;8.610;2023-08-06T11:29:38;1.55;;;1.10;;
74777;SDS011;63298;53.164;8.610;2023-08-06T11:32:04;1.40;;;1.27;;
74777;SDS011;63298;53.164;8.610;2023-08-06T11:34:30;1.33;;;1.23;;
74777;SDS011;63298;53.164;8.610;2023-08-06T11:36:56;1.42;;;1.15;;
74777;SDS011;63298;53.164;8.610;2023-08-06T11:39:22;1.20;;;1.20;;
74777;SDS011;63298;53.164;8.610;2023-08-06T11:41:48;1.00;;;1.00;;
74777;SDS011;63298;53.164;8.610;2023-08-06T11:44:13;1.85;;;1.20;;
74777;SDS011;63298;53.164;8.610;2023-08-06T11:46:51;1.45;;;1.35;;
74777;SDS011;63298;53.164;8.610;2023-08-06T11:49:20;2.22;;;1.33;;
74777;SDS011;63298;53.164;8.610;2023-08-06T11:51:45;2.78;;;1.10;;
74777;SDS011;63298;53.164;8.610;2023-08-06T11:54:11;2.42;;;1.30;;
74777;SDS011;63298;53.164;8.610;2023-08-06T11:56:36;1.98;;;1.23;;
74777;SDS011;63298;53.164;8.610;2023-08-06T11:59:01;1.63;;;1.52;;
74777;SDS011;63298;53.164;8.610;2023-08-06T12:01:27;1.27;;;1.20;;
74777;SDS011;63298;53.164;8.610;2023-08-06T12:03:57;2.00;;;1.30;;
74777;SDS011;63298;53.164;8.610;2023-08-06T12:06:26;1.50;;;1.40;;
74777;SDS011;63298;53.164;8.610;2023-08-06T12:08:52;1.13;;;1.13;;
74777;SDS011;63298;53.164;8.610;2023-08-06T12:11:20;2.88;;;1.40;;
74777;SDS011;63298;53.164;8.610;2023-08-06T12:13:50;1.83;;;1.58;;
74777;SDS011;63298;53.164;8.610;2023-08-06T12:16:16;6.30;;;1.25;;
74777;SDS011;63298;53.164;8.610;2023-08-06T12:18:41;1.48;;;1.38;;
74777;SDS011;63298;53.164;8.610;2023-08-06T12:21:06;1.85;;;1.50;;
74777;SDS011;63298;53.164;8.610;2023-08-06T12:23:32;1.60;;;1.50;;
74777;SDS011;63298;53.164;8.610;2023-08-06T12:25:57;1.63;;;1.52;;
74777;SDS011;63298;53.164;8.610;2023-08-06T12:28:22;1.63;;;1.58;;
74777;SDS011;63298;53.164;8.610;2023-08-06T12:30:48;1.88;;;1.70;;
74777;SDS011;63298;53.164;8.610;2023-08-06T12:33:13;1.50;;;1.40;;
74777;SDS011;63298;53.164;8.610;2023-08-06T12:35:39;2.83;;;1.50;;
74777;SDS011;63298;53.164;8.610;2023-08-06T12:38:04;2.15;;;1.40;;
74777;SDS011;63298;53.164;8.610;2023-08-06T12:40:29;1.85;;;1.48;;
74777;SDS011;63298;53.164;8.610;2023-08-06T12:42:56;1.63;;;1.42;;
74777;SDS011;63298;53.164;8.610;2023-08-06T12:45:24;2.08;;;1.48;;
74777;SDS011;63298;53.164;8.610;2023-08-06T12:47:49;1.50;;;1.40;;
74777;SDS011;63298;53.164;8.610;2023-08-06T12:50:15;1.50;;;1.40;;
74777;SDS011;63298;53.164;8.610;2023-08-06T12:52:40;1.95;;;1.30;;
74777;SDS011;63298;53.164;8.610;2023-08-06T12:55:05;1.73;;;1.50;;
74777;SDS011;63298;53.164;8.610;2023-08-06T12:57:31;1.40;;;1.30;;
74777;SDS011;63298;53.164;8.610;2023-08-06T12:59:56;1.25;;;1.17;;
74777;SDS011;63298;53.164;8.610;2023-08-06T13:02:22;2.75;;;1.55;;
74777;SDS011;63298;53.164;8.610;2023-08-06T13:04:47;1.50;;;1.42;;
74777;SDS011;63298;53.164;8.610;2023-08-06T13:07:12;6.43;;;1.65;;
74777;SDS011;63298;53.164;8.610;2023-08-06T13:09:41;2.35;;;1.73;;
74777;SDS011;63298;53.164;8.610;2023-08-06T13:12:09;4.72;;;1.67;;
74777;SDS011;63298;53.164;8.610;2023-08-06T13:14:34;1.52;;;1.42;;
74777;SDS011;63298;53.164;8.610;2023-08-06T13:17:00;1.48;;;1.38;;
74777;SDS011;63298;53.164;8.610;2023-08-06T13:19:25;1.25;;;1.25;;
74777;SDS011;63298;53.164;8.610;2023-08-06T13:24:16;2.58;;;1.60;;
74777;SDS011;63298;53.164;8.610;2023-08-06T13:26:41;1.63;;;1.52;;
74777;SDS011;63298;53.164;8.610;2023-08-06T13:29:07;5.05;;;1.60;;
74777;SDS011;63298;53.164;8.610;2023-08-06T13:31:32;1.70;;;1.60;;
74777;SDS011;63298;53.164;8.610;2023-08-06T13:33:58;2.72;;;1.95;;
74777;SDS011;63298;53.164;8.610;2023-08-06T13:36:23;3.22;;;1.60;;
74777;SDS011;63298;53.164;8.610;2023-08-06T13:38:49;2.72;;;1.60;;
74777;SDS011;63298;53.164;8.610;2023-08-06T13:41:15;2.53;;;1.25;;
74777;SDS011;63298;53.164;8.610;2023-08-06T13:43:40;2.00;;;1.65;;
74777;SDS011;63298;53.164;8.610;2023-08-06T13:46:06;1.40;;;1.30;;
74777;SDS011;63298;53.164;8.610;2023-08-06T13:48:31;3.13;;;1.48;;
74777;SDS011;63298;53.164;8.610;2023-08-06T13:50:56;2.20;;;1.67;;
74777;SDS011;63298;53.164;8.610;2023-08-06T13:53:22;2.67;;;1.40;;
74777;SDS011;63298;53.164;8.610;2023-08-06T13:55:47;5.28;;;2.13;;
74777;SDS011;63298;53.164;8.610;2023-08-06T13:58:12;2.42;;;1.50;;
74777;SDS011;63298;53.164;8.610;2023-08-06T14:00:38;1.40;;;1.30;;
74777;SDS011;63298;53.164;8.610;2023-08-06T14:03:03;2.13;;;1.75;;
74777;SDS011;63298;53.164;8.610;2023-08-06T14:05:28;1.80;;;1.67;;
74777;SDS011;63298;53.164;8.610;2023-08-06T14:07:54;1.70;;;1.60;;
74777;SDS011;63298;53.164;8.610;2023-08-06T14:10:19;3.65;;;1.55;;
74777;SDS011;63298;53.164;8.610;2023-08-06T14:12:44;3.40;;;1.67;;
74777;SDS011;63298;53.164;8.610;2023-08-06T14:15:10;1.63;;;1.50;;
74777;SDS011;63298;53.164;8.610;2023-08-06T14:17:36;1.65;;;1.52;;
74777;SDS011;63298;53.164;8.610;2023-08-06T14:20:02;5.25;;;1.70;;
74777;SDS011;63298;53.164;8.610;2023-08-06T14:22:28;3.35;;;1.60;;
74777;SDS011;63298;53.164;8.610;2023-08-06T14:24:53;1.90;;;1.77;;
74777;SDS011;63298;53.164;8.610;2023-08-06T14:27:19;1.52;;;1.33;;
74777;SDS011;63298;53.164;8.610;2023-08-06T14:29:44;4.38;;;1.70;;
74777;SDS011;63298;53.164;8.610;2023-08-06T14:32:09;3.08;;;1.27;;
74777;SDS011;63298;53.164;8.610;2023-08-06T14:34:34;1.40;;;1.30;;
74777;SDS011;63298;53.164;8.610;2023-08-06T14:37:00;2.13;;;1.30;;
74777;SDS011;63298;53.164;8.610;2023-08-06T14:39:25;1.88;;;1.10;;
74777;SDS011;63298;53.164;8.610;2023-08-06T14:41:50;1.77;;;1.50;;
74777;SDS011;63298;53.164;8.610;2023-08-06T14:44:16;2.13;;;1.48;;
74777;SDS011;63298;53.164;8.610;2023-08-06T14:46:41;1.58;;;1.30;;
74777;SDS011;63298;53.164;8.610;2023-08-06T14:49:06;2.75;;;1.40;;
74777;SDS011;63298;53.164;8.610;2023-08-06T14:51:32;1.70;;;1.60;;
74777;SDS011;63298;53.164;8.610;2023-08-06T14:53:57;3.80;;;2.10;;